sensor_id;sensor_type;location;lat;lon;timestamp;pressure;altitude;pressure_sealevel;temperature;humidity
59789;BME280;47353;51.614;5.530;2023-07-13T00:00:37;101302.03;;;14.78;80.80
59789;BME280;47353;51.614;5.530;2023-07-13T00:03:04;101300.69;;;14.75;81.47
59789;BME280;47353;51.614;5.530;2023-07-13T00:05:30;101303.16;;;14.77;81.20
59789;BME280;47353;51.614;5.530;2023-07-13T00:07:56;101306.84;;;14.72;81.48
59789;BME280;47353;51.614;5.530;2023-07-13T00:10:22;101311.81;;;14.75;81.54
59789;BME280;47353;51.614;5.530;2023-07-13T00:12:48;101313.81;;;14.70;81.82
59789;BME280;47353;51.614;5.530;2023-07-13T00:15:17;101314.94;;;14.69;82.42
59789;BME280;47353;51.614;5.530;2023-07-13T00:17:46;101311.38;;;14.63;82.25
59789;BME280;47353;51.614;5.530;2023-07-13T00:20:12;101310.00;;;14.61;82.63
59789;BME280;47353;51.614;5.530;2023-07-13T00:22:38;101303.06;;;14.58;82.71
59789;BME280;47353;51.614;5.530;2023-07-13T00:25:04;101308.09;;;14.56;83.06
59789;BME280;47353;51.614;5.530;2023-07-13T00:27:29;101312.19;;;14.64;82.39
59789;BME280;47353;51.614;5.530;2023-07-13T00:29:57;101305.56;;;14.60;82.57
59789;BME280;47353;51.614;5.530;2023-07-13T00:32:23;101318.66;;;14.59;82.73
59789;BME280;47353;51.614;5.530;2023-07-13T00:34:51;101298.88;;;14.56;83.14
59789;BME280;47353;51.614;5.530;2023-07-13T00:37:17;101313.41;;;14.53;83.33
59789;BME280;47353;51.614;5.530;2023-07-13T00:39:42;101312.88;;;14.51;83.83
59789;BME280;47353;51.614;5.530;2023-07-13T00:42:07;101313.69;;;14.51;83.99
59789;BME280;47353;51.614;5.530;2023-07-13T00:44:33;101314.25;;;14.53;84.16
59789;BME280;47353;51.614;5.530;2023-07-13T00:46:58;101310.91;;;14.51;84.87
59789;BME280;47353;51.614;5.530;2023-07-13T00:49:26;101311.50;;;14.48;84.59
59789;BME280;47353;51.614;5.530;2023-07-13T00:51:58;101315.16;;;14.44;84.82
59789;BME280;47353;51.614;5.530;2023-07-13T00:54:28;101323.81;;;14.42;85.38
59789;BME280;47353;51.614;5.530;2023-07-13T00:56:57;101321.53;;;14.49;84.93
59789;BME280;47353;51.614;5.530;2023-07-13T00:59:24;101319.38;;;14.41;85.42
59789;BME280;47353;51.614;5.530;2023-07-13T01:01:50;101323.84;;;14.37;85.52
59789;BME280;47353;51.614;5.530;2023-07-13T01:04:17;101321.91;;;14.33;85.94
59789;BME280;47353;51.614;5.530;2023-07-13T01:06:43;101319.38;;;14.41;85.34
59789;BME280;47353;51.614;5.530;2023-07-13T01:09:09;101328.63;;;14.32;85.76
59789;BME280;47353;51.614;5.530;2023-07-13T01:11:36;101319.50;;;14.26;86.18
59789;BME280;47353;51.614;5.530;2023-07-13T01:14:02;101324.75;;;14.23;86.60
59789;BME280;47353;51.614;5.530;2023-07-13T01:16:31;101325.06;;;14.21;87.35
59789;BME280;47353;51.614;5.530;2023-07-13T01:18:58;101330.63;;;14.21;87.38
59789;BME280;47353;51.614;5.530;2023-07-13T01:21:24;101326.72;;;14.22;87.32
59789;BME280;47353;51.614;5.530;2023-07-13T01:23:50;101333.41;;;14.21;87.72
59789;BME280;47353;51.614;5.530;2023-07-13T01:26:16;101332.00;;;14.29;87.22
59789;BME280;47353;51.614;5.530;2023-07-13T01:28:42;101334.50;;;14.25;87.36
59789;BME280;47353;51.614;5.530;2023-07-13T01:31:07;101330.56;;;14.31;87.14
59789;BME280;47353;51.614;5.530;2023-07-13T01:33:35;101333.94;;;14.28;87.23
59789;BME280;47353;51.614;5.530;2023-07-13T01:36:01;101331.69;;;14.30;86.84
59789;BME280;47353;51.614;5.530;2023-07-13T01:38:27;101333.41;;;14.26;87.43
59789;BME280;47353;51.614;5.530;2023-07-13T01:40:53;101333.41;;;14.21;88.24
59789;BME280;47353;51.614;5.530;2023-07-13T01:43:19;101331.50;;;14.17;88.46
59789;BME280;47353;51.614;5.530;2023-07-13T01:45:45;101335.94;;;14.13;88.84
59789;BME280;47353;51.614;5.530;2023-07-13T01:48:11;101337.94;;;14.12;88.53
59789;BME280;47353;51.614;5.530;2023-07-13T01:50:37;101336.81;;;14.08;88.95
59789;BME280;47353;51.614;5.530;2023-07-13T01:53:04;101342.38;;;14.08;89.31
59789;BME280;47353;51.614;5.530;2023-07-13T01:55:30;101337.41;;;14.05;90.03
59789;BME280;47353;51.614;5.530;2023-07-13T01:57:56;101339.66;;;14.03;90.15
59789;BME280;47353;51.614;5.530;2023-07-13T02:00:22;101331.88;;;14.00;90.90
59789;BME280;47353;51.614;5.530;2023-07-13T02:02:47;101339.09;;;14.01;90.73
59789;BME280;47353;51.614;5.530;2023-07-13T02:05:13;101339.41;;;14.00;90.84
59789;BME280;47353;51.614;5.530;2023-07-13T02:07:39;101339.41;;;14.00;91.16
59789;BME280;47353;51.614;5.530;2023-07-13T02:10:06;101338.03;;;13.97;91.50
59789;BME280;47353;51.614;5.530;2023-07-13T02:12:33;101337.75;;;13.94;91.63
59789;BME280;47353;51.614;5.530;2023-07-13T02:14:58;101334.97;;;13.94;91.36
59789;BME280;47353;51.614;5.530;2023-07-13T02:17:25;101345.00;;;13.90;91.83
59789;BME280;47353;51.614;5.530;2023-07-13T02:19:51;101340.84;;;13.92;91.86
59789;BME280;47353;51.614;5.530;2023-07-13T02:22:16;101334.44;;;13.87;92.36
59789;BME280;47353;51.614;5.530;2023-07-13T02:24:42;101334.72;;;13.90;91.97
59789;BME280;47353;51.614;5.530;2023-07-13T02:27:07;101348.94;;;13.84;92.77
59789;BME280;47353;51.614;5.530;2023-07-13T02:29:33;101344.81;;;13.71;93.60
59789;BME280;47353;51.614;5.530;2023-07-13T02:31:58;101349.56;;;13.71;94.04
59789;BME280;47353;51.614;5.530;2023-07-13T02:34:23;101344.56;;;13.68;94.65
59789;BME280;47353;51.614;5.530;2023-07-13T02:36:49;101340.13;;;13.67;94.87
59789;BME280;47353;51.614;5.530;2023-07-13T02:39:14;101345.97;;;13.65;95.08
59789;BME280;47353;51.614;5.530;2023-07-13T02:41:40;101347.09;;;13.64;95.83
59789;BME280;47353;51.614;5.530;2023-07-13T02:44:05;101351.28;;;13.62;95.55
59789;BME280;47353;51.614;5.530;2023-07-13T02:46:34;101355.16;;;13.61;95.73
59789;BME280;47353;51.614;5.530;2023-07-13T02:49:00;101355.72;;;13.58;96.45
59789;BME280;47353;51.614;5.530;2023-07-13T02:51:25;101351.31;;;13.57;96.43
59789;BME280;47353;51.614;5.530;2023-07-13T02:53:51;101354.66;;;13.54;97.52
59789;BME280;47353;51.614;5.530;2023-07-13T02:56:17;101352.94;;;13.58;97.66
59789;BME280;47353;51.614;5.530;2023-07-13T02:58:42;101353.25;;;13.56;97.75
59789;BME280;47353;51.614;5.530;2023-07-13T03:01:09;101354.66;;;13.54;98.46
59789;BME280;47353;51.614;5.530;2023-07-13T03:03:36;101352.41;;;13.56;97.94
59789;BME280;47353;51.614;5.530;2023-07-13T03:06:03;101351.88;;;13.54;97.73
59789;BME280;47353;51.614;5.530;2023-07-13T03:08:30;101355.22;;;13.51;97.52
59789;BME280;47353;51.614;5.530;2023-07-13T03:11:04;101354.66;;;13.49;97.72
59789;BME280;47353;51.614;5.530;2023-07-13T03:13:30;101366.34;;;13.51;97.58
59789;BME280;47353;51.614;5.530;2023-07-13T03:15:56;101356.59;;;13.53;97.49
59789;BME280;47353;51.614;5.530;2023-07-13T03:18:21;101364.41;;;13.46;97.24
59789;BME280;47353;51.614;5.530;2023-07-13T03:20:50;101362.22;;;13.38;97.93
59789;BME280;47353;51.614;5.530;2023-07-13T03:23:16;101362.22;;;13.38;98.20
59789;BME280;47353;51.614;5.530;2023-07-13T03:25:42;101353.31;;;13.31;99.15
59789;BME280;47353;51.614;5.530;2023-07-13T03:28:07;101362.22;;;13.28;99.11
59789;BME280;47353;51.614;5.530;2023-07-13T03:30:33;101354.72;;;13.23;99.37
59789;BME280;47353;51.614;5.530;2023-07-13T03:32:58;101359.75;;;13.21;99.46
59789;BME280;47353;51.614;5.530;2023-07-13T03:35:23;101361.72;;;13.16;100.00
59789;BME280;47353;51.614;5.530;2023-07-13T03:37:49;101364.47;;;13.21;100.00
59789;BME280;47353;51.614;5.530;2023-07-13T03:40:14;101370.31;;;13.19;100.00
59789;BME280;47353;51.614;5.530;2023-07-13T03:42:40;101380.88;;;13.17;100.00
59789;BME280;47353;51.614;5.530;2023-07-13T03:45:06;101369.75;;;13.22;100.00
59789;BME280;47353;51.614;5.530;2023-07-13T03:47:31;101374.19;;;13.23;100.00
59789;BME280;47353;51.614;5.530;2023-07-13T03:49:57;101375.59;;;13.21;100.00
59789;BME280;47353;51.614;5.530;2023-07-13T03:52:22;101380.59;;;13.19;100.00
59789;BME280;47353;51.614;5.530;2023-07-13T03:54:48;101380.06;;;13.17;100.00
59789;BME280;47353;51.614;5.530;2023-07-13T03:57:13;101386.72;;;13.16;100.00
59789;BME280;47353;51.614;5.530;2023-07-13T03:59:39;101385.63;;;13.12;100.00
59789;BME280;47353;51.614;5.530;2023-07-13T04:02:04;101390.34;;;13.21;100.00
59789;BME280;47353;51.614;5.530;2023-07-13T04:04:30;101387.84;;;13.20;100.00
59789;BME280;47353;51.614;5.530;2023-07-13T04:06:57;101397.56;;;13.22;100.00
59789;BME280;47353;51.614;5.530;2023-07-13T04:09:23;101396.72;;;13.22;100.00
59789;BME280;47353;51.614;5.530;2023-07-13T04:11:49;101409.25;;;13.19;100.00
59789;BME280;47353;51.614;5.530;2023-07-13T04:14:14;101401.72;;;13.30;100.00
59789;BME280;47353;51.614;5.530;2023-07-13T04:16:39;101404.78;;;13.33;100.00
59789;BME280;47353;51.614;5.530;2023-07-13T04:19:05;101402.56;;;13.35;100.00
59789;BME280;47353;51.614;5.530;2023-07-13T04:21:31;101408.34;;;13.44;100.00
59789;BME280;47353;51.614;5.530;2023-07-13T04:23:56;101399.16;;;13.49;100.00
59789;BME280;47353;51.614;5.530;2023-07-13T04:26:22;101398.88;;;13.55;100.00
59789;BME280;47353;51.614;5.530;2023-07-13T04:28:48;101406.91;;;13.62;100.00
59789;BME280;47353;51.614;5.530;2023-07-13T04:31:14;101406.88;;;13.67;100.00
59789;BME280;47353;51.614;5.530;2023-07-13T04:33:39;101409.06;;;13.75;100.00
59789;BME280;47353;51.614;5.530;2023-07-13T04:36:05;101419.63;;;13.88;100.00
59789;BME280;47353;51.614;5.530;2023-07-13T04:38:32;101415.97;;;13.97;100.00
59789;BME280;47353;51.614;5.530;2023-07-13T04:41:03;101409.28;;;13.93;100.00
59789;BME280;47353;51.614;5.530;2023-07-13T04:43:30;101414.25;;;14.01;100.00
59789;BME280;47353;51.614;5.530;2023-07-13T04:45:56;101412.81;;;14.14;100.00
59789;BME280;47353;51.614;5.530;2023-07-13T04:48:22;101425.00;;;14.23;100.00
59789;BME280;47353;51.614;5.530;2023-07-13T04:50:53;101426.41;;;14.25;100.00
59789;BME280;47353;51.614;5.530;2023-07-13T04:53:19;101423.31;;;14.32;100.00
59789;BME280;47353;51.614;5.530;2023-07-13T04:55:44;101412.69;;;14.39;100.00
59789;BME280;47353;51.614;5.530;2023-07-13T04:58:09;101425.75;;;14.43;100.00
59789;BME280;47353;51.614;5.530;2023-07-13T05:00:35;101423.72;;;14.54;100.00
59789;BME280;47353;51.614;5.530;2023-07-13T05:03:00;101423.41;;;14.60;100.00
59789;BME280;47353;51.614;5.530;2023-07-13T05:05:26;101428.41;;;14.63;100.00
59789;BME280;47353;51.614;5.530;2023-07-13T05:07:52;101434.75;;;14.69;100.00
59789;BME280;47353;51.614;5.530;2023-07-13T05:10:18;101433.03;;;14.73;100.00
59789;BME280;47353;51.614;5.530;2023-07-13T05:12:44;101438.00;;;14.81;100.00
59789;BME280;47353;51.614;5.530;2023-07-13T05:15:10;101442.97;;;14.89;100.00
59789;BME280;47353;51.614;5.530;2023-07-13T05:17:36;101439.00;;;14.95;100.00
59789;BME280;47353;51.614;5.530;2023-07-13T05:20:01;101440.59;;;15.06;100.00
59789;BME280;47353;51.614;5.530;2023-07-13T05:22:26;101442.22;;;15.12;100.00
59789;BME280;47353;51.614;5.530;2023-07-13T05:24:52;101446.06;;;15.16;100.00
59789;BME280;47353;51.614;5.530;2023-07-13T05:27:17;101444.97;;;15.17;100.00
59789;BME280;47353;51.614;5.530;2023-07-13T05:29:43;101451.31;;;15.23;100.00
59789;BME280;47353;51.614;5.530;2023-07-13T05:32:09;101454.31;;;15.31;100.00
59789;BME280;47353;51.614;5.530;2023-07-13T05:34:35;101449.19;;;15.43;100.00
59789;BME280;47353;51.614;5.530;2023-07-13T05:37:00;101454.44;;;15.50;100.00
59789;BME280;47353;51.614;5.530;2023-07-13T05:39:25;101448.78;;;15.55;100.00
59789;BME280;47353;51.614;5.530;2023-07-13T05:41:52;101459.91;;;15.60;100.00
59789;BME280;47353;51.614;5.530;2023-07-13T05:44:18;101459.84;;;15.65;100.00
59789;BME280;47353;51.614;5.530;2023-07-13T05:46:44;101461.47;;;15.71;100.00
59789;BME280;47353;51.614;5.530;2023-07-13T05:49:09;101471.13;;;15.78;99.70
59789;BME280;47353;51.614;5.530;2023-07-13T05:51:35;101458.84;;;15.79;98.79
59789;BME280;47353;51.614;5.530;2023-07-13T05:54:00;101452.59;;;15.87;98.75
59789;BME280;47353;51.614;5.530;2023-07-13T05:56:26;101459.78;;;15.93;99.37
59789;BME280;47353;51.614;5.530;2023-07-13T05:58:52;101459.78;;;15.93;98.37
59789;BME280;47353;51.614;5.530;2023-07-13T06:01:17;101473.16;;;15.96;98.76
59789;BME280;47353;51.614;5.530;2023-07-13T06:03:44;101476.75;;;16.02;98.35
59789;BME280;47353;51.614;5.530;2023-07-13T06:06:10;101479.47;;;16.07;97.74
59789;BME280;47353;51.614;5.530;2023-07-13T06:08:35;101482.47;;;16.10;97.57
59789;BME280;47353;51.614;5.530;2023-07-13T06:11:06;101486.50;;;16.23;98.09
59789;BME280;47353;51.614;5.530;2023-07-13T06:13:32;101487.34;;;16.23;98.18
59789;BME280;47353;51.614;5.530;2023-07-13T06:15:58;101494.25;;;16.31;97.06
59789;BME280;47353;51.614;5.530;2023-07-13T06:18:24;101498.09;;;16.35;96.70
59789;BME280;47353;51.614;5.530;2023-07-13T06:20:49;101489.94;;;16.38;96.17
59789;BME280;47353;51.614;5.530;2023-07-13T06:23:14;101499.53;;;16.56;95.98
59789;BME280;47353;51.614;5.530;2023-07-13T06:25:40;101495.94;;;16.50;94.94
59789;BME280;47353;51.614;5.530;2023-07-13T06:28:06;101496.63;;;16.61;95.42
59789;BME280;47353;51.614;5.530;2023-07-13T06:30:31;101490.06;;;16.71;94.13
59789;BME280;47353;51.614;5.530;2023-07-13T06:32:57;101493.09;;;16.93;93.65
59789;BME280;47353;51.614;5.530;2023-07-13T06:35:22;101501.47;;;17.11;92.96
59789;BME280;47353;51.614;5.530;2023-07-13T06:37:48;101508.94;;;17.16;91.49
59789;BME280;47353;51.614;5.530;2023-07-13T06:40:13;101504.28;;;17.11;91.68
59789;BME280;47353;51.614;5.530;2023-07-13T06:42:39;101498.19;;;17.23;92.61
59789;BME280;47353;51.614;5.530;2023-07-13T06:45:05;101508.38;;;17.32;91.11
59789;BME280;47353;51.614;5.530;2023-07-13T06:47:30;101512.75;;;17.38;91.13
59789;BME280;47353;51.614;5.530;2023-07-13T06:49:56;101500.22;;;17.36;90.00
59789;BME280;47353;51.614;5.530;2023-07-13T06:52:21;101523.88;;;17.43;89.82
59789;BME280;47353;51.614;5.530;2023-07-13T06:54:47;101517.75;;;17.41;90.22
59789;BME280;47353;51.614;5.530;2023-07-13T06:57:12;101522.38;;;17.32;90.15
59789;BME280;47353;51.614;5.530;2023-07-13T06:59:37;101521.06;;;17.43;90.42
59789;BME280;47353;51.614;5.530;2023-07-13T07:02:03;101518.66;;;17.55;89.48
59789;BME280;47353;51.614;5.530;2023-07-13T07:04:28;101520.63;;;17.55;88.69
59789;BME280;47353;51.614;5.530;2023-07-13T07:06:54;101528.28;;;17.49;89.45
59789;BME280;47353;51.614;5.530;2023-07-13T07:09:19;101526.41;;;17.45;89.65
59789;BME280;47353;51.614;5.530;2023-07-13T07:11:45;101527.06;;;17.37;90.14
59789;BME280;47353;51.614;5.530;2023-07-13T07:14:10;101527.47;;;17.49;90.12
59789;BME280;47353;51.614;5.530;2023-07-13T07:16:35;101533.09;;;17.62;89.51
59789;BME280;47353;51.614;5.530;2023-07-13T07:19:01;101528.13;;;17.59;88.94
59789;BME280;47353;51.614;5.530;2023-07-13T07:21:26;101528.00;;;17.64;88.05
59789;BME280;47353;51.614;5.530;2023-07-13T07:23:52;101532.56;;;17.60;88.93
59789;BME280;47353;51.614;5.530;2023-07-13T07:26:18;101529.78;;;17.74;88.82
59789;BME280;47353;51.614;5.530;2023-07-13T07:28:43;101538.53;;;17.86;88.86
59789;BME280;47353;51.614;5.530;2023-07-13T07:31:09;101530.88;;;17.91;86.82
59789;BME280;47353;51.614;5.530;2023-07-13T07:33:35;101538.66;;;18.08;86.89
59789;BME280;47353;51.614;5.530;2023-07-13T07:36:00;101545.31;;;18.12;85.54
59789;BME280;47353;51.614;5.530;2023-07-13T07:38:26;101542.41;;;18.03;84.80
59789;BME280;47353;51.614;5.530;2023-07-13T07:40:53;101551.00;;;17.93;85.96
59789;BME280;47353;51.614;5.530;2023-07-13T07:43:18;101543.25;;;18.04;86.32
59789;BME280;47353;51.614;5.530;2023-07-13T07:45:45;101551.56;;;18.22;85.35
59789;BME280;47353;51.614;5.530;2023-07-13T07:48:10;101531.41;;;18.48;85.14
59789;BME280;47353;51.614;5.530;2023-07-13T07:50:36;101549.91;;;18.62;83.04
59789;BME280;47353;51.614;5.530;2023-07-13T07:53:03;101546.78;;;18.64;82.53
59789;BME280;47353;51.614;5.530;2023-07-13T07:55:33;101547.31;;;18.66;81.44
59789;BME280;47353;51.614;5.530;2023-07-13T07:57:58;101547.03;;;18.89;81.55
59789;BME280;47353;51.614;5.530;2023-07-13T08:00:23;101549.84;;;18.89;80.09
59789;BME280;47353;51.614;5.530;2023-07-13T08:02:49;101551.63;;;18.85;80.26
59789;BME280;47353;51.614;5.530;2023-07-13T08:05:15;101547.69;;;19.35;79.48
59789;BME280;47353;51.614;5.530;2023-07-13T08:07:40;101548.72;;;19.92;77.11
59789;BME280;47353;51.614;5.530;2023-07-13T08:10:06;101546.38;;;20.16;74.76
59789;BME280;47353;51.614;5.530;2023-07-13T08:12:36;101557.47;;;20.21;73.94
59789;BME280;47353;51.614;5.530;2023-07-13T08:15:02;101562.47;;;20.02;73.12
59789;BME280;47353;51.614;5.530;2023-07-13T08:17:28;101559.28;;;20.17;73.57
59789;BME280;47353;51.614;5.530;2023-07-13T08:19:53;101559.94;;;19.92;71.89
59789;BME280;47353;51.614;5.530;2023-07-13T08:22:18;101559.00;;;20.27;73.27
59789;BME280;47353;51.614;5.530;2023-07-13T08:24:44;101561.22;;;20.47;70.87
59789;BME280;47353;51.614;5.530;2023-07-13T08:27:13;101557.63;;;20.64;70.93
59789;BME280;47353;51.614;5.530;2023-07-13T08:29:39;101553.94;;;21.11;69.83
59789;BME280;47353;51.614;5.530;2023-07-13T08:32:06;101553.28;;;21.14;67.56
59789;BME280;47353;51.614;5.530;2023-07-13T08:34:34;101561.06;;;21.85;65.97
59789;BME280;47353;51.614;5.530;2023-07-13T08:37:01;101565.03;;;21.50;64.10
59789;BME280;47353;51.614;5.530;2023-07-13T08:39:29;101556.91;;;21.48;64.07
59789;BME280;47353;51.614;5.530;2023-07-13T08:42:01;101551.09;;;22.34;62.45
59789;BME280;47353;51.614;5.530;2023-07-13T08:44:47;101547.91;;;22.44;62.99
59789;BME280;47353;51.614;5.530;2023-07-13T08:47:16;101554.69;;;22.05;61.82
59789;BME280;47353;51.614;5.530;2023-07-13T08:49:43;101559.91;;;21.78;62.58
59789;BME280;47353;51.614;5.530;2023-07-13T08:52:18;101552.22;;;22.41;59.18
59789;BME280;47353;51.614;5.530;2023-07-13T08:54:51;101552.28;;;22.33;56.78
59789;BME280;47353;51.614;5.530;2023-07-13T08:57:26;101554.06;;;22.75;58.16
59789;BME280;47353;51.614;5.530;2023-07-13T08:59:55;101560.16;;;23.68;54.22
59789;BME280;47353;51.614;5.530;2023-07-13T09:02:27;101560.81;;;23.53;53.43
59789;BME280;47353;51.614;5.530;2023-07-13T09:05:01;101557.72;;;23.46;53.67
59789;BME280;47353;51.614;5.530;2023-07-13T09:07:57;101551.09;;;23.62;55.10
59789;BME280;47353;51.614;5.530;2023-07-13T09:10:46;101545.41;;;25.00;52.29
59789;BME280;47353;51.614;5.530;2023-07-13T09:13:41;101558.50;;;25.04;49.84
59789;BME280;47353;51.614;5.530;2023-07-13T09:16:09;101559.50;;;24.15;50.17
59789;BME280;47353;51.614;5.530;2023-07-13T09:18:46;101549.75;;;25.09;50.49
59789;BME280;47353;51.614;5.530;2023-07-13T09:21:20;101549.50;;;24.30;50.46
59789;BME280;47353;51.614;5.530;2023-07-13T09:23:52;101558.22;;;23.80;51.93
59789;BME280;47353;51.614;5.530;2023-07-13T09:26:23;101556.09;;;24.10;50.24
59789;BME280;47353;51.614;5.530;2023-07-13T09:28:57;101535.69;;;23.72;51.34
59789;BME280;47353;51.614;5.530;2023-07-13T09:31:26;101547.28;;;25.08;48.86
59789;BME280;47353;51.614;5.530;2023-07-13T09:33:55;101548.66;;;26.08;45.78
59789;BME280;47353;51.614;5.530;2023-07-13T09:36:24;101549.16;;;26.57;43.80
59789;BME280;47353;51.614;5.530;2023-07-13T09:39:09;101543.66;;;26.64;43.54
59789;BME280;47353;51.614;5.530;2023-07-13T09:41:48;101543.53;;;25.43;45.02
59789;BME280;47353;51.614;5.530;2023-07-13T09:44:18;101546.22;;;24.64;46.45
59789;BME280;47353;51.614;5.530;2023-07-13T09:46:54;101544.09;;;24.97;47.42
59789;BME280;47353;51.614;5.530;2023-07-13T09:49:24;101555.19;;;26.09;42.91
59789;BME280;47353;51.614;5.530;2023-07-13T09:51:58;101554.19;;;26.64;42.29
59789;BME280;47353;51.614;5.530;2023-07-13T09:54:25;101552.16;;;26.80;41.18
59789;BME280;47353;51.614;5.530;2023-07-13T09:56:58;101556.81;;;26.10;42.62
59789;BME280;47353;51.614;5.530;2023-07-13T09:59:29;101544.38;;;25.32;44.58
59789;BME280;47353;51.614;5.530;2023-07-13T10:01:55;101550.22;;;24.51;45.06
59789;BME280;47353;51.614;5.530;2023-07-13T10:04:35;101546.22;;;25.52;45.13
59789;BME280;47353;51.614;5.530;2023-07-13T10:07:12;101554.47;;;25.57;45.03
59789;BME280;47353;51.614;5.530;2023-07-13T10:09:38;101544.38;;;25.87;45.27
59789;BME280;47353;51.614;5.530;2023-07-13T10:12:12;101550.44;;;26.75;41.87
59789;BME280;47353;51.614;5.530;2023-07-13T10:14:39;101557.56;;;26.38;40.92
59789;BME280;47353;51.614;5.530;2023-07-13T10:17:10;101552.38;;;25.54;44.15
59789;BME280;47353;51.614;5.530;2023-07-13T10:19:38;101547.03;;;24.52;46.46
59789;BME280;47353;51.614;5.530;2023-07-13T10:24:46;101559.03;;;23.28;49.20
59789;BME280;47353;51.614;5.530;2023-07-13T10:27:20;101561.72;;;22.95;50.55
59789;BME280;47353;51.614;5.530;2023-07-13T10:30:17;101566.22;;;23.17;49.82
59789;BME280;47353;51.614;5.530;2023-07-13T10:32:45;101567.13;;;23.09;49.62
59789;BME280;47353;51.614;5.530;2023-07-13T10:35:13;101564.31;;;23.70;48.63
59789;BME280;47353;51.614;5.530;2023-07-13T10:37:49;101555.59;;;23.96;48.64
59789;BME280;47353;51.614;5.530;2023-07-13T10:40:27;101555.53;;;24.28;47.37
59789;BME280;47353;51.614;5.530;2023-07-13T10:42:58;101548.44;;;24.22;47.06
59789;BME280;47353;51.614;5.530;2023-07-13T10:45:26;101561.59;;;24.75;45.46
59789;BME280;47353;51.614;5.530;2023-07-13T10:47:54;101562.97;;;25.84;42.79
59789;BME280;47353;51.614;5.530;2023-07-13T10:50:23;101563.63;;;26.37;41.48
59789;BME280;47353;51.614;5.530;2023-07-13T10:52:54;101565.91;;;26.16;41.89
59789;BME280;47353;51.614;5.530;2023-07-13T10:58:12;101582.59;;;26.64;42.09
59789;BME280;47353;51.614;5.530;2023-07-13T11:01:17;101584.63;;;27.29;41.09
59789;BME280;47353;51.614;5.530;2023-07-13T11:06:12;101600.69;;;28.36;38.13
59789;BME280;47353;51.614;5.530;2023-07-13T11:18:47;101597.56;;;31.25;33.21
59789;BME280;47353;51.614;5.530;2023-07-13T11:21:25;101589.56;;;30.13;35.11
59789;BME280;47353;51.614;5.530;2023-07-13T11:24:01;101596.72;;;28.63;35.91
59789;BME280;47353;51.614;5.530;2023-07-13T11:29:36;101577.47;;;28.79;37.57
59789;BME280;47353;51.614;5.530;2023-07-13T11:32:22;101581.78;;;27.67;39.16
59789;BME280;47353;51.614;5.530;2023-07-13T11:34:47;101593.63;;;25.94;42.62
59789;BME280;47353;51.614;5.530;2023-07-13T11:37:16;101587.66;;;24.81;47.60
59789;BME280;47353;51.614;5.530;2023-07-13T11:39:44;101593.16;;;24.41;51.95
59789;BME280;47353;51.614;5.530;2023-07-13T11:42:19;101596.09;;;24.44;49.18
59789;BME280;47353;51.614;5.530;2023-07-13T11:44:48;101602.31;;;24.83;48.69
59789;BME280;47353;51.614;5.530;2023-07-13T11:47:19;101591.97;;;25.38;48.63
59789;BME280;47353;51.614;5.530;2023-07-13T11:49:53;101595.22;;;25.64;46.77
59789;BME280;47353;51.614;5.530;2023-07-13T11:52:35;101595.09;;;25.61;47.11
59789;BME280;47353;51.614;5.530;2023-07-13T11:55:05;101589.25;;;25.30;47.74
59789;BME280;47353;51.614;5.530;2023-07-13T11:57:43;101595.31;;;25.04;46.60
59789;BME280;47353;51.614;5.530;2023-07-13T12:00:13;101594.66;;;24.26;49.21
59789;BME280;47353;51.614;5.530;2023-07-13T12:02:45;101593.53;;;23.74;52.42
59789;BME280;47353;51.614;5.530;2023-07-13T12:05:14;101588.94;;;23.49;52.51
59789;BME280;47353;51.614;5.530;2023-07-13T12:07:40;101576.31;;;23.26;53.15
59789;BME280;47353;51.614;5.530;2023-07-13T12:12:35;101577.78;;;23.85;50.07
59789;BME280;47353;51.614;5.530;2023-07-13T12:15:05;101575.44;;;24.20;48.35
59789;BME280;47353;51.614;5.530;2023-07-13T12:17:31;101578.00;;;24.94;48.91
59789;BME280;47353;51.614;5.530;2023-07-13T12:19:57;101578.13;;;25.49;46.35
59789;BME280;47353;51.614;5.530;2023-07-13T12:22:22;101588.03;;;25.82;46.22
59789;BME280;47353;51.614;5.530;2023-07-13T12:24:48;101575.13;;;25.57;44.97
59789;BME280;47353;51.614;5.530;2023-07-13T12:27:22;101578.91;;;25.10;47.01
59789;BME280;47353;51.614;5.530;2023-07-13T12:29:58;101578.06;;;25.33;47.79
59789;BME280;47353;51.614;5.530;2023-07-13T12:32:25;101575.19;;;25.73;46.36
59789;BME280;47353;51.614;5.530;2023-07-13T12:34:54;101574.56;;;26.07;43.33
59789;BME280;47353;51.614;5.530;2023-07-13T12:37:20;101581.94;;;26.55;42.52
59789;BME280;47353;51.614;5.530;2023-07-13T12:39:47;101583.16;;;26.85;42.21
59789;BME280;47353;51.614;5.530;2023-07-13T12:44:45;101578.47;;;26.46;35.88
59789;BME280;47353;51.614;5.530;2023-07-13T12:47:13;101573.69;;;25.63;37.15
59789;BME280;47353;51.614;5.530;2023-07-13T12:49:47;101580.34;;;25.55;38.82
59789;BME280;47353;51.614;5.530;2023-07-13T12:52:20;101599.78;;;25.69;38.09
59789;BME280;47353;51.614;5.530;2023-07-13T12:54:53;101589.13;;;25.78;39.46
59789;BME280;47353;51.614;5.530;2023-07-13T12:57:22;101583.69;;;26.00;38.34
59789;BME280;47353;51.614;5.530;2023-07-13T12:59:52;101580.03;;;26.59;39.06
59789;BME280;47353;51.614;5.530;2023-07-13T13:02:33;101583.13;;;26.54;38.15
59789;BME280;47353;51.614;5.530;2023-07-13T13:04:59;101591.44;;;26.47;37.16
59789;BME280;47353;51.614;5.530;2023-07-13T13:07:25;101584.59;;;26.32;38.90
59789;BME280;47353;51.614;5.530;2023-07-13T13:09:51;101579.66;;;26.29;38.01
59789;BME280;47353;51.614;5.530;2023-07-13T13:12:19;101577.38;;;26.81;38.30
59789;BME280;47353;51.614;5.530;2023-07-13T13:14:44;101573.97;;;26.60;36.52
59789;BME280;47353;51.614;5.530;2023-07-13T13:17:23;101569.53;;;26.00;37.95